WAT2702 KPVU-KJAC
Flight info
| Callsign | WAT2702 |
|---|---|
| Flight time | 0h 48m |
| Altitude | 35000 |
| Route | DITTI1 TCH J713 BPI MOSSS |
| Aircraft | CRJ7/M-SDFGIRWY/S |
Departure
| Time | 2026-05-04 23:15 |
|---|---|
| Airport | Provo Municipal Airport (KPVU) |
Arrival
| Time | 2026-05-05 00:04 |
|---|---|
| Airport | Jackson Hole Airport (KJAC) |
| Time | Latitude | Longitude | Altitude | Speed | Heading |
|---|---|---|---|---|---|
| 2026-05-04 23:02 | 40.21366 | -111.71338 | 4506 ft | 0 kts | 56° |
| 2026-05-04 23:06 | 40.21365 | -111.71339 | 4497 ft | 2 kts | 56° |
| 2026-05-04 23:07 | 40.21364 | -111.71341 | 4497 ft | 3 kts | 56° |
| 2026-05-04 23:08 | 40.21354 | -111.71363 | 4497 ft | 4 kts | 62° |
| 2026-05-04 23:08 | 40.21342 | -111.71395 | 4497 ft | 4 kts | 68° |
| 2026-05-04 23:08 | 40.21337 | -111.71412 | 4498 ft | 1 kts | 68° |
| 2026-05-04 23:09 | 40.21336 | -111.71414 | 4498 ft | 0 kts | 68° |
| 2026-05-04 23:10 | 40.21337 | -111.71412 | 4498 ft | 1 kts | 68° |
| 2026-05-04 23:11 | 40.21337 | -111.71410 | 4498 ft | 0 kts | 71° |
| 2026-05-04 23:11 | 40.21332 | -111.71386 | 4499 ft | 6 kts | 130° |
| 2026-05-04 23:11 | 40.21283 | -111.71344 | 4498 ft | 9 kts | 177° |
| 2026-05-04 23:11 | 40.21242 | -111.71396 | 4497 ft | 8 kts | 237° |
| 2026-05-04 23:12 | 40.21199 | -111.71414 | 4499 ft | 8 kts | 145° |
| 2026-05-04 23:12 | 40.21147 | -111.71392 | 4495 ft | 7 kts | 210° |
| 2026-05-04 23:12 | 40.21135 | -111.71408 | 4497 ft | 0 kts | 232° |
| 2026-05-04 23:13 | 40.21131 | -111.71415 | 4495 ft | 3 kts | 233° |
| 2026-05-04 23:13 | 40.21102 | -111.71469 | 4498 ft | 10 kts | 236° |
| 2026-05-04 23:14 | 40.21100 | -111.71541 | 4499 ft | 7 kts | 322° |
| 2026-05-04 23:14 | 40.21142 | -111.71580 | 4499 ft | 13 kts | 326° |
| 2026-05-04 23:14 | 40.21386 | -111.71796 | 4500 ft | 72 kts | 326° |
| 2026-05-04 23:14 | 40.21952 | -111.72298 | 4498 ft | 122 kts | 325° |
| 2026-05-04 23:15 | 40.22749 | -111.73006 | 4601 ft | 150 kts | 326° |
| 2026-05-04 23:15 | 40.23591 | -111.73802 | 5253 ft | 141 kts | 324° |
| 2026-05-04 23:15 | 40.24424 | -111.74543 | 5657 ft | 154 kts | 320° |
| 2026-05-04 23:15 | 40.25190 | -111.75474 | 6191 ft | 141 kts | 303° |
| 2026-05-04 23:16 | 40.25616 | -111.76618 | 6562 ft | 149 kts | 280° |
| 2026-05-04 23:16 | 40.25528 | -111.77991 | 6849 ft | 158 kts | 245° |
| 2026-05-04 23:16 | 40.24810 | -111.79120 | 7206 ft | 167 kts | 220° |
| 2026-05-04 23:16 | 40.23843 | -111.80027 | 7488 ft | 176 kts | 212° |
| 2026-05-04 23:17 | 40.22760 | -111.80869 | 7879 ft | 185 kts | 212° |
| 2026-05-04 23:17 | 40.21663 | -111.81771 | 8369 ft | 188 kts | 213° |
| 2026-05-04 23:17 | 40.20601 | -111.82745 | 8964 ft | 184 kts | 220° |
| 2026-05-04 23:17 | 40.19605 | -111.83920 | 9272 ft | 200 kts | 224° |
| 2026-05-04 23:18 | 40.18610 | -111.85221 | 9748 ft | 207 kts | 224° |
| 2026-05-04 23:18 | 40.17573 | -111.86611 | 10034 ft | 218 kts | 225° |
| 2026-05-04 23:18 | 40.16505 | -111.88044 | 10421 ft | 225 kts | 225° |
| 2026-05-04 23:18 | 40.15363 | -111.89577 | 10536 ft | 252 kts | 227° |
| 2026-05-04 23:19 | 40.14405 | -111.91545 | 10923 ft | 271 kts | 252° |
| 2026-05-04 23:19 | 40.14150 | -111.94073 | 11389 ft | 283 kts | 265° |
| 2026-05-04 23:19 | 40.14265 | -111.96694 | 11758 ft | 304 kts | 278° |
| 2026-05-04 23:19 | 40.14849 | -111.99247 | 12493 ft | 306 kts | 290° |
| 2026-05-04 23:20 | 40.15614 | -112.01734 | 13397 ft | 304 kts | 288° |
| 2026-05-04 23:20 | 40.16284 | -112.04389 | 13979 ft | 312 kts | 284° |
| 2026-05-04 23:20 | 40.16901 | -112.07157 | 14486 ft | 321 kts | 294° |
| 2026-05-04 23:20 | 40.18312 | -112.09451 | 15004 ft | 335 kts | 319° |
| 2026-05-04 23:21 | 40.20476 | -112.10833 | 15024 ft | 362 kts | 347° |
| 2026-05-04 23:21 | 40.23045 | -112.10813 | 15302 ft | 377 kts | 13° |
| 2026-05-04 23:21 | 40.25571 | -112.09812 | 15810 ft | 380 kts | 18° |
| 2026-05-04 23:21 | 40.28108 | -112.08796 | 16280 ft | 384 kts | 15° |
| 2026-05-04 23:22 | 40.30712 | -112.08015 | 16764 ft | 386 kts | 11° |
| 2026-05-04 23:22 | 40.33370 | -112.07490 | 17229 ft | 388 kts | 7° |
| 2026-05-04 23:22 | 40.36067 | -112.07057 | 17666 ft | 392 kts | 7° |
| 2026-05-04 23:22 | 40.38778 | -112.06617 | 18244 ft | 395 kts | 7° |
| 2026-05-04 23:23 | 40.41510 | -112.06134 | 18792 ft | 397 kts | 8° |
| 2026-05-04 23:23 | 40.44155 | -112.05652 | 19305 ft | 400 kts | 8° |
| 2026-05-04 23:23 | 40.46925 | -112.05148 | 19805 ft | 403 kts | 8° |
| 2026-05-04 23:23 | 40.49710 | -112.04639 | 20294 ft | 406 kts | 8° |
| 2026-05-04 23:24 | 40.52513 | -112.04125 | 20818 ft | 408 kts | 8° |
| 2026-05-04 23:24 | 40.55335 | -112.03607 | 21300 ft | 410 kts | 8° |
| 2026-05-04 23:24 | 40.58178 | -112.03086 | 21702 ft | 414 kts | 8° |
| 2026-05-04 23:24 | 40.61038 | -112.02559 | 22119 ft | 417 kts | 8° |
| 2026-05-04 23:25 | 40.63875 | -112.02037 | 22582 ft | 419 kts | 8° |
| 2026-05-04 23:25 | 40.66768 | -112.01503 | 23019 ft | 421 kts | 8° |
| 2026-05-04 23:25 | 40.69574 | -112.00985 | 23379 ft | 424 kts | 8° |
| 2026-05-04 23:25 | 40.72544 | -112.00437 | 23692 ft | 427 kts | 8° |
| 2026-05-04 23:26 | 40.75488 | -111.99896 | 24009 ft | 429 kts | 8° |
| 2026-05-04 23:26 | 40.78446 | -111.99350 | 24354 ft | 430 kts | 7° |
| 2026-05-04 23:26 | 40.81380 | -111.98805 | 24675 ft | 432 kts | 7° |
| 2026-05-04 23:26 | 40.84330 | -111.98018 | 24954 ft | 435 kts | 19° |
| 2026-05-04 23:27 | 40.86925 | -111.96333 | 25234 ft | 438 kts | 31° |
| 2026-05-04 23:27 | 40.89385 | -111.93960 | 25528 ft | 437 kts | 39° |
| 2026-05-04 23:27 | 40.91712 | -111.91346 | 25851 ft | 438 kts | 40° |
| 2026-05-04 23:27 | 40.94024 | -111.88719 | 26207 ft | 438 kts | 39° |
| 2026-05-04 23:28 | 40.96306 | -111.86248 | 26561 ft | 437 kts | 37° |
| 2026-05-04 23:28 | 40.98699 | -111.83763 | 26918 ft | 437 kts | 37° |
| 2026-05-04 23:28 | 41.01093 | -111.81272 | 27261 ft | 437 kts | 37° |
| 2026-05-04 23:28 | 41.03483 | -111.78762 | 27560 ft | 441 kts | 37° |
| 2026-05-04 23:29 | 41.05898 | -111.76220 | 27750 ft | 444 kts | 37° |
| 2026-05-04 23:29 | 41.08313 | -111.73674 | 28059 ft | 444 kts | 37° |
| 2026-05-04 23:29 | 41.10730 | -111.71124 | 28368 ft | 444 kts | 37° |
| 2026-05-04 23:29 | 41.13148 | -111.68570 | 28671 ft | 444 kts | 37° |
| 2026-05-04 23:30 | 41.15559 | -111.66021 | 29127 ft | 440 kts | 37° |
| 2026-05-04 23:30 | 41.17947 | -111.63491 | 29494 ft | 439 kts | 37° |
| 2026-05-04 23:30 | 41.20222 | -111.61081 | 29779 ft | 439 kts | 37° |
| 2026-05-04 23:30 | 41.22531 | -111.58632 | 30008 ft | 439 kts | 37° |
| 2026-05-04 23:31 | 41.24920 | -111.56097 | 30203 ft | 439 kts | 37° |
| 2026-05-04 23:31 | 41.27308 | -111.53562 | 30416 ft | 440 kts | 37° |
| 2026-05-04 23:31 | 41.29703 | -111.51016 | 30622 ft | 441 kts | 37° |
| 2026-05-04 23:31 | 41.32099 | -111.48466 | 30845 ft | 441 kts | 37° |
| 2026-05-04 23:32 | 41.34463 | -111.45946 | 31061 ft | 442 kts | 36° |
| 2026-05-04 23:32 | 41.36861 | -111.43389 | 31265 ft | 442 kts | 36° |
| 2026-05-04 23:32 | 41.39262 | -111.40827 | 31465 ft | 443 kts | 36° |
| 2026-05-04 23:32 | 41.41645 | -111.38278 | 31933 ft | 436 kts | 37° |
| 2026-05-04 23:33 | 41.44008 | -111.35747 | 32157 ft | 435 kts | 37° |
| 2026-05-04 23:33 | 41.46378 | -111.33212 | 32329 ft | 436 kts | 36° |
| 2026-05-04 23:33 | 41.48664 | -111.30763 | 32455 ft | 437 kts | 37° |
| 2026-05-04 23:33 | 41.51037 | -111.28218 | 32638 ft | 438 kts | 37° |
| 2026-05-04 23:34 | 41.53268 | -111.25821 | 32797 ft | 439 kts | 36° |
| 2026-05-04 23:34 | 41.55648 | -111.23264 | 32963 ft | 439 kts | 36° |
| 2026-05-04 23:34 | 41.58038 | -111.20695 | 33126 ft | 440 kts | 36° |
| 2026-05-04 23:34 | 41.60425 | -111.18126 | 33271 ft | 441 kts | 36° |
| 2026-05-04 23:35 | 41.62814 | -111.15550 | 33433 ft | 442 kts | 36° |
| 2026-05-04 23:35 | 41.65202 | -111.12972 | 33676 ft | 440 kts | 36° |
| 2026-05-04 23:35 | 41.67566 | -111.10416 | 33997 ft | 436 kts | 36° |
| 2026-05-04 23:35 | 41.69928 | -111.07864 | 34113 ft | 437 kts | 36° |
| 2026-05-04 23:36 | 41.72293 | -111.05306 | 34241 ft | 438 kts | 36° |
| 2026-05-04 23:36 | 41.74662 | -111.02739 | 34353 ft | 438 kts | 36° |
| 2026-05-04 23:36 | 41.78531 | -110.98544 | 34526 ft | 440 kts | 36° |
| 2026-05-04 23:37 | 41.81688 | -110.95118 | 34651 ft | 442 kts | 36° |
| 2026-05-04 23:37 | 41.83306 | -110.93358 | 34684 ft | 443 kts | 36° |
| 2026-05-04 23:37 | 41.88814 | -110.87362 | 34728 ft | 451 kts | 36° |
| 2026-05-04 23:38 | 41.93716 | -110.82006 | 34751 ft | 458 kts | 37° |
| 2026-05-04 23:38 | 41.98681 | -110.76573 | 34742 ft | 460 kts | 36° |
| 2026-05-04 23:39 | 42.02730 | -110.72136 | 34740 ft | 460 kts | 36° |
| 2026-05-04 23:39 | 42.08467 | -110.65838 | 34737 ft | 455 kts | 36° |
| 2026-05-04 23:40 | 42.12563 | -110.61330 | 34783 ft | 453 kts | 36° |
| 2026-05-04 23:40 | 42.17328 | -110.56076 | 34752 ft | 453 kts | 36° |
| 2026-05-04 23:41 | 42.22181 | -110.50717 | 34752 ft | 449 kts | 36° |
| 2026-05-04 23:41 | 42.26922 | -110.45470 | 34746 ft | 445 kts | 36° |
| 2026-05-04 23:42 | 42.31659 | -110.40223 | 34758 ft | 444 kts | 36° |
| 2026-05-04 23:42 | 42.36433 | -110.34913 | 34785 ft | 444 kts | 36° |
| 2026-05-04 23:43 | 42.41203 | -110.29601 | 34829 ft | 444 kts | 36° |
| 2026-05-04 23:43 | 42.45964 | -110.24289 | 34864 ft | 444 kts | 36° |
| 2026-05-04 23:44 | 42.50619 | -110.19085 | 34897 ft | 443 kts | 36° |
| 2026-05-04 23:44 | 42.55771 | -110.15069 | 34907 ft | 430 kts | 12° |
| 2026-05-04 23:45 | 42.61590 | -110.13426 | 34923 ft | 426 kts | 5° |
| 2026-05-04 23:45 | 42.64530 | -110.12848 | 34649 ft | 429 kts | 4° |
| 2026-05-04 23:45 | 42.67474 | -110.12381 | 34169 ft | 421 kts | 1° |
| 2026-05-04 23:46 | 42.70357 | -110.12486 | 33639 ft | 409 kts | 350° |
| 2026-05-04 23:46 | 42.73129 | -110.13141 | 33083 ft | 400 kts | 342° |
| 2026-05-04 23:46 | 42.75797 | -110.14081 | 32539 ft | 397 kts | 349° |
| 2026-05-04 23:46 | 42.78561 | -110.14453 | 32024 ft | 402 kts | 354° |
| 2026-05-04 23:47 | 42.81237 | -110.14673 | 31552 ft | 406 kts | 354° |
| 2026-05-04 23:47 | 42.84106 | -110.14950 | 31056 ft | 410 kts | 353° |
| 2026-05-04 23:47 | 42.86915 | -110.15340 | 30573 ft | 413 kts | 352° |
| 2026-05-04 23:47 | 42.89776 | -110.15813 | 30037 ft | 416 kts | 352° |
| 2026-05-04 23:48 | 42.92661 | -110.16275 | 29499 ft | 419 kts | 352° |
| 2026-05-04 23:48 | 42.95563 | -110.16727 | 28932 ft | 421 kts | 352° |
| 2026-05-04 23:48 | 42.98481 | -110.17183 | 28389 ft | 424 kts | 352° |
| 2026-05-04 23:48 | 43.01417 | -110.17645 | 27838 ft | 426 kts | 352° |
| 2026-05-04 23:49 | 43.04372 | -110.18109 | 27303 ft | 428 kts | 352° |
| 2026-05-04 23:49 | 43.07225 | -110.18558 | 26789 ft | 430 kts | 352° |
| 2026-05-04 23:49 | 43.10167 | -110.19021 | 26265 ft | 419 kts | 352° |
| 2026-05-04 23:49 | 43.13016 | -110.19471 | 25759 ft | 407 kts | 352° |
| 2026-05-04 23:50 | 43.15791 | -110.19910 | 25275 ft | 396 kts | 352° |
| 2026-05-04 23:50 | 43.18512 | -110.20339 | 24826 ft | 393 kts | 352° |
| 2026-05-04 23:50 | 43.21234 | -110.20768 | 24377 ft | 395 kts | 351° |
| 2026-05-04 23:50 | 43.23906 | -110.21192 | 23936 ft | 396 kts | 351° |
| 2026-05-04 23:51 | 43.26645 | -110.21626 | 23506 ft | 396 kts | 351° |
| 2026-05-04 23:51 | 43.29325 | -110.22050 | 23009 ft | 395 kts | 351° |
| 2026-05-04 23:51 | 43.31963 | -110.22472 | 22521 ft | 393 kts | 351° |
| 2026-05-04 23:51 | 43.34669 | -110.22900 | 22010 ft | 390 kts | 351° |
| 2026-05-04 23:52 | 43.37356 | -110.23327 | 21522 ft | 387 kts | 351° |
| 2026-05-04 23:52 | 43.40016 | -110.23752 | 21045 ft | 381 kts | 351° |
| 2026-05-04 23:52 | 43.42629 | -110.24168 | 20592 ft | 376 kts | 351° |
| 2026-05-04 23:52 | 43.45209 | -110.24579 | 20150 ft | 370 kts | 351° |
| 2026-05-04 23:53 | 43.47753 | -110.24984 | 19708 ft | 366 kts | 350° |
| 2026-05-04 23:53 | 43.50299 | -110.25391 | 19289 ft | 371 kts | 350° |
| 2026-05-04 23:53 | 43.52876 | -110.25803 | 18853 ft | 374 kts | 351° |
| 2026-05-04 23:53 | 43.55471 | -110.26220 | 18443 ft | 376 kts | 351° |
| 2026-05-04 23:54 | 43.57982 | -110.26621 | 18046 ft | 378 kts | 350° |
| 2026-05-04 23:54 | 43.60585 | -110.27036 | 17560 ft | 373 kts | 350° |
| 2026-05-04 23:54 | 43.63101 | -110.27440 | 17085 ft | 364 kts | 351° |
| 2026-05-04 23:54 | 43.65629 | -110.27838 | 16612 ft | 359 kts | 351° |
| 2026-05-04 23:55 | 43.68071 | -110.28235 | 16176 ft | 355 kts | 349° |
| 2026-05-04 23:55 | 43.70488 | -110.28902 | 15746 ft | 345 kts | 343° |
| 2026-05-04 23:55 | 43.74997 | -110.30593 | 14951 ft | 332 kts | 343° |
| 2026-05-04 23:56 | 43.77211 | -110.31419 | 14520 ft | 327 kts | 343° |
| 2026-05-04 23:56 | 43.79395 | -110.32230 | 14109 ft | 322 kts | 343° |
| 2026-05-04 23:56 | 43.81469 | -110.33001 | 13754 ft | 318 kts | 343° |
| 2026-05-04 23:56 | 43.83588 | -110.33788 | 13370 ft | 313 kts | 343° |
| 2026-05-04 23:57 | 43.85664 | -110.34613 | 12992 ft | 306 kts | 336° |
| 2026-05-04 23:57 | 43.87308 | -110.36351 | 12641 ft | 299 kts | 306° |
| 2026-05-04 23:57 | 43.88016 | -110.39009 | 12362 ft | 297 kts | 276° |
| 2026-05-04 23:57 | 43.87615 | -110.41795 | 12094 ft | 299 kts | 246° |
| 2026-05-04 23:58 | 43.86530 | -110.44195 | 12062 ft | 287 kts | 239° |
| 2026-05-04 23:58 | 43.85386 | -110.46396 | 12086 ft | 276 kts | 237° |
| 2026-05-04 23:58 | 43.84233 | -110.48466 | 12067 ft | 267 kts | 236° |
| 2026-05-04 23:58 | 43.83090 | -110.50448 | 11935 ft | 262 kts | 234° |
| 2026-05-04 23:59 | 43.81915 | -110.52418 | 11591 ft | 267 kts | 234° |
| 2026-05-04 23:59 | 43.80898 | -110.54483 | 11244 ft | 268 kts | 244° |
| 2026-05-04 23:59 | 43.80085 | -110.56744 | 10913 ft | 269 kts | 249° |
| 2026-05-04 23:59 | 43.79333 | -110.59075 | 10583 ft | 271 kts | 249° |
| 2026-05-05 00:00 | 43.78517 | -110.61409 | 10231 ft | 275 kts | 242° |
| 2026-05-05 00:00 | 43.78133 | -110.62136 | 10108 ft | 278 kts | 232° |
| 2026-05-05 00:00 | 43.75730 | -110.65128 | 9548 ft | 279 kts | 221° |
| 2026-05-05 00:00 | 43.74190 | -110.66720 | 9167 ft | 273 kts | 220° |
| 2026-05-05 00:01 | 43.72641 | -110.68072 | 8799 ft | 254 kts | 207° |
| 2026-05-05 00:01 | 43.71048 | -110.68875 | 8493 ft | 231 kts | 197° |
| 2026-05-05 00:01 | 43.69629 | -110.69431 | 8278 ft | 187 kts | 198° |
| 2026-05-05 00:01 | 43.68517 | -110.69930 | 8066 ft | 159 kts | 200° |
| 2026-05-05 00:02 | 43.67488 | -110.70411 | 7771 ft | 155 kts | 203° |
| 2026-05-05 00:02 | 43.66419 | -110.70936 | 7328 ft | 168 kts | 202° |
| 2026-05-05 00:02 | 43.65318 | -110.71486 | 7183 ft | 171 kts | 204° |
| 2026-05-05 00:02 | 43.64159 | -110.72084 | 7014 ft | 182 kts | 202° |
| 2026-05-05 00:03 | 43.62995 | -110.72639 | 6827 ft | 174 kts | 201° |
| 2026-05-05 00:03 | 43.61860 | -110.73217 | 6559 ft | 175 kts | 200° |
| 2026-05-05 00:03 | 43.60774 | -110.73754 | 6424 ft | 143 kts | 199° |
| 2026-05-05 00:03 | 43.60146 | -110.74060 | 6416 ft | 55 kts | 199° |
| 2026-05-05 00:04 | 43.59956 | -110.74145 | 6418 ft | 16 kts | 184° |
| 2026-05-05 00:04 | 43.59906 | -110.74079 | 6421 ft | 7 kts | 109° |
| 2026-05-05 00:04 | 43.59910 | -110.74024 | 6420 ft | 6 kts | 48° |
| 2026-05-05 00:04 | 43.59962 | -110.73992 | 6419 ft | 11 kts | 21° |
| 2026-05-05 00:05 | 43.60047 | -110.73948 | 6418 ft | 15 kts | 20° |
| 2026-05-05 00:05 | 43.60152 | -110.73898 | 6419 ft | 16 kts | 18° |
| 2026-05-05 00:05 | 43.60253 | -110.73849 | 6419 ft | 16 kts | 19° |
| 2026-05-05 00:05 | 43.60278 | -110.73833 | 6416 ft | 2 kts | 36° |
| 2026-05-05 00:06 | 43.60281 | -110.73828 | 6417 ft | 0 kts | 60° |
| 2026-05-05 00:06 | 43.60282 | -110.73821 | 6418 ft | 1 kts | 97° |
| 2026-05-05 00:06 | 43.60275 | -110.73794 | 6419 ft | 4 kts | 111° |
| 2026-05-05 00:06 | 43.60269 | -110.73770 | 6418 ft | 0 kts | 109° |
| 2026-05-05 00:07 | 43.60268 | -110.73769 | 6418 ft | 0 kts | 109° |